createdAt,value
2019-03-31T00:00:34.731Z,58.50
2019-03-31T00:01:34.608Z,58.80
2019-03-31T00:02:34.599Z,59.40
2019-03-31T00:03:34.561Z,55.60
2019-03-31T00:04:34.538Z,57.70
2019-03-31T00:05:37.266Z,56.60
2019-03-31T00:06:34.506Z,58.50
2019-03-31T00:07:34.458Z,59.20
2019-03-31T00:08:34.484Z,57.90
2019-03-31T00:09:34.426Z,57.70
2019-03-31T00:10:34.501Z,55.60
2019-03-31T00:11:34.343Z,62.10
2019-03-31T00:12:34.389Z,62.70
2019-03-31T00:13:34.303Z,57.60
2019-03-31T00:14:34.270Z,60.20
2019-03-31T00:15:34.324Z,59.10
2019-03-31T00:16:34.316Z,61.70
2019-03-31T00:17:34.214Z,60.70
2019-03-31T00:18:34.164Z,62.10
2019-03-31T00:19:34.227Z,59.50
2019-03-31T00:20:34.114Z,61.60
2019-03-31T00:21:34.147Z,58.30
2019-03-31T00:22:34.056Z,60.10
2019-03-31T00:23:34.034Z,59.80
2019-03-31T00:24:34.003Z,56.10
2019-03-31T00:25:33.986Z,61.00
2019-03-31T00:26:33.953Z,61.40
2019-03-31T00:27:33.963Z,63.30
2019-03-31T00:28:33.908Z,65.00
2019-03-31T00:29:33.884Z,63.30
2019-03-31T00:30:35.994Z,66.70
2019-03-31T00:31:33.849Z,64.70
2019-03-31T00:32:58.454Z,72.10
2019-03-31T00:33:33.781Z,65.50
2019-03-31T00:34:41.446Z,64.30
2019-03-31T00:35:33.739Z,67.80
2019-03-31T00:36:54.723Z,65.00
2019-03-31T00:37:33.680Z,66.00
2019-03-31T01:13:21.814Z,65.90
2019-03-31T01:14:21.636Z,67.30
2019-03-31T01:16:15.224Z,65.60
2019-03-31T01:17:18.599Z,68.70
2019-03-31T01:18:15.135Z,69.10
2019-03-31T01:19:15.164Z,71.10
2019-03-31T01:20:15.084Z,67.30
2019-03-31T01:21:15.059Z,66.90
2019-03-31T01:22:15.080Z,69.00
2019-03-31T01:23:15.005Z,64.90
2019-03-31T01:24:14.986Z,73.80
2019-03-31T01:25:14.946Z,68.30
2019-03-31T01:26:14.929Z,67.30
2019-03-31T01:27:14.899Z,65.10
2019-03-31T01:28:14.864Z,67.60
2019-03-31T01:29:14.941Z,67.70
2019-03-31T01:30:14.827Z,68.10
2019-03-31T01:31:14.798Z,71.70
2019-03-31T01:32:14.838Z,72.20
2019-03-31T01:33:14.743Z,66.50
2019-03-31T01:34:14.754Z,67.90
2019-03-31T01:35:14.695Z,70.90
2019-03-31T01:36:14.665Z,69.50
2019-03-31T01:37:14.635Z,73.20
2019-03-31T01:38:14.617Z,74.50
2019-03-31T01:39:14.683Z,71.90
2019-03-31T01:40:14.556Z,72.10
2019-03-31T01:41:14.608Z,77.00
2019-03-31T01:42:14.515Z,74.70
2019-03-31T01:43:14.484Z,75.30
2019-03-31T01:44:14.449Z,76.60
2019-03-31T01:45:14.521Z,74.00
2019-03-31T01:46:14.400Z,73.20
2019-03-31T01:47:14.451Z,71.90
2019-03-31T01:48:14.347Z,76.60
2019-03-31T01:49:14.316Z,76.40
2019-03-31T01:50:14.294Z,76.40
2019-03-31T01:51:14.295Z,73.90
2019-03-31T01:52:14.235Z,80.00
2019-03-31T01:53:14.274Z,74.60
2019-03-31T01:54:14.227Z,76.30
2019-03-31T01:55:14.358Z,75.80
2019-03-31T01:56:14.130Z,81.50
2019-03-31T01:57:14.270Z,69.40
2019-03-31T01:58:14.080Z,75.30
2019-03-31T01:59:14.084Z,77.50
2019-03-31T02:00:14.037Z,76.20
2019-03-31T02:01:14.091Z,82.10
2019-03-31T02:02:13.974Z,76.60
2019-03-31T02:03:14.002Z,73.70
2019-03-31T02:04:13.919Z,81.50
2019-03-31T02:05:13.900Z,78.50
2019-03-31T02:06:13.870Z,80.60
2019-03-31T02:07:13.852Z,84.90
2019-03-31T02:08:13.817Z,76.30
2019-03-31T02:09:13.790Z,83.30
2019-03-31T02:10:13.766Z,76.10
2019-03-31T02:11:13.740Z,80.30
2019-03-31T02:12:13.712Z,78.90
2019-03-31T02:13:13.685Z,79.30
2019-03-31T02:14:13.728Z,84.90
2019-03-31T02:15:13.646Z,80.30
2019-03-31T02:16:13.606Z,85.70
2019-03-31T02:17:13.586Z,81.60
2019-03-31T02:18:13.546Z,83.80
2019-03-31T02:19:13.526Z,83.40
2019-03-31T02:20:13.496Z,85.90
2019-03-31T02:21:13.477Z,85.00
2019-03-31T02:22:13.444Z,79.40
2019-03-31T02:23:13.421Z,80.60
2019-03-31T02:24:13.399Z,78.70
2019-03-31T02:25:13.372Z,76.90
2019-03-31T02:26:13.342Z,79.20
2019-03-31T02:27:13.315Z,79.90
2019-03-31T02:28:13.281Z,77.90
2019-03-31T02:29:13.343Z,81.80
2019-03-31T02:30:13.245Z,81.80
2019-03-31T02:31:13.207Z,74.50
2019-03-31T02:32:23.489Z,83.70
2019-03-31T02:33:13.152Z,82.60
2019-03-31T02:34:13.129Z,81.40
2019-03-31T02:35:13.103Z,79.30
2019-03-31T02:36:13.078Z,79.10
2019-03-31T02:37:13.046Z,86.90
2019-03-31T02:38:13.027Z,81.90
2019-03-31T02:39:12.987Z,85.60
2019-03-31T02:40:12.965Z,87.20
2019-03-31T02:41:12.936Z,82.20
2019-03-31T02:42:12.921Z,82.30
2019-03-31T02:43:12.880Z,89.60
2019-03-31T02:44:12.875Z,78.00
2019-03-31T02:45:12.829Z,87.50
2019-03-31T02:46:12.806Z,78.50
2019-03-31T02:47:12.781Z,86.10
2019-03-31T02:48:14.763Z,82.20
2019-03-31T02:49:12.723Z,82.40
2019-03-31T02:50:12.708Z,88.50
2019-03-31T02:51:12.671Z,82.20
2019-03-31T02:52:14.656Z,85.90
2019-03-31T02:53:12.615Z,82.10
2019-03-31T02:54:12.614Z,83.30
2019-03-31T02:55:12.562Z,88.30
2019-03-31T02:56:12.547Z,81.40
2019-03-31T02:57:12.512Z,84.20
2019-03-31T02:58:12.502Z,86.00
2019-03-31T02:59:12.464Z,86.00
2019-03-31T03:00:12.436Z,88.20
2019-03-31T03:01:12.412Z,85.20
2019-03-31T03:02:12.423Z,85.70
2019-03-31T03:03:12.354Z,89.40
2019-03-31T03:04:12.357Z,87.70
2019-03-31T03:05:19.441Z,86.60
2019-03-31T03:06:12.345Z,87.40
2019-03-31T03:07:12.257Z,83.70
2019-03-31T03:08:12.218Z,84.00
2019-03-31T03:09:12.210Z,89.20
2019-03-31T03:10:12.271Z,75.80
2019-03-31T03:11:12.144Z,83.40
2019-03-31T03:12:12.139Z,84.70
2019-03-31T03:13:12.201Z,79.10
2019-03-31T03:14:12.059Z,80.00
2019-03-31T03:15:12.110Z,86.10
2019-03-31T03:16:12.005Z,81.10
2019-03-31T03:17:12.024Z,81.50
2019-03-31T03:18:11.959Z,78.80
2019-03-31T03:19:12.948Z,82.70
2019-03-31T03:20:11.892Z,82.60
2019-03-31T03:21:11.947Z,83.60
2019-03-31T03:22:11.851Z,80.80
2019-03-31T03:23:11.811Z,79.80
2019-03-31T03:24:11.818Z,83.70
2019-03-31T03:25:11.876Z,80.90
2019-03-31T03:26:11.762Z,78.20
2019-03-31T03:27:11.711Z,78.40
2019-03-31T03:28:11.787Z,80.00
2019-03-31T03:29:11.653Z,76.90
2019-03-31T03:30:11.690Z,76.70
2019-03-31T03:31:15.874Z,81.20
2019-03-31T03:32:11.578Z,78.30
2019-03-31T03:33:15.914Z,76.70
2019-03-31T03:34:11.544Z,75.20
2019-03-31T03:35:11.490Z,77.50
2019-03-31T03:36:11.545Z,74.20
2019-03-31T03:37:11.459Z,78.30
2019-03-31T03:38:11.514Z,80.20
2019-03-31T03:39:11.430Z,75.80
2019-03-31T03:40:11.455Z,73.20
2019-03-31T03:41:11.342Z,73.30
2019-03-31T03:42:11.321Z,73.80
2019-03-31T03:43:11.286Z,72.60
2019-03-31T03:44:11.283Z,70.50
2019-03-31T03:45:11.226Z,74.30
2019-03-31T03:46:11.226Z,69.10
2019-03-31T03:47:11.180Z,74.50
2019-03-31T03:48:11.153Z,74.20
2019-03-31T03:49:11.294Z,72.70
2019-03-31T03:50:11.201Z,69.60
2019-03-31T03:51:11.073Z,68.70
2019-03-31T03:52:11.041Z,67.80
2019-03-31T03:53:11.115Z,64.60
2019-03-31T03:54:11.007Z,68.20
2019-03-31T03:55:10.972Z,66.50
2019-03-31T03:56:10.931Z,69.70
2019-03-31T03:57:10.919Z,65.30
2019-03-31T03:58:10.987Z,64.00
2019-03-31T03:59:10.954Z,62.60
2019-03-31T04:00:10.895Z,64.90
2019-03-31T04:01:10.856Z,68.10
2019-03-31T04:02:10.764Z,61.10
2019-03-31T04:03:28.602Z,67.00
2019-03-31T04:04:10.720Z,62.90
2019-03-31T04:05:10.788Z,63.70
2019-03-31T04:06:10.680Z,66.20
2019-03-31T04:07:10.647Z,64.40
2019-03-31T04:08:10.625Z,65.80
2019-03-31T04:09:10.610Z,62.90
2019-03-31T04:10:10.593Z,67.30
2019-03-31T04:11:10.547Z,69.80
2019-03-31T04:12:10.527Z,64.00
2019-03-31T04:13:10.571Z,63.60
2019-03-31T04:14:10.455Z,66.90
2019-03-31T04:15:10.448Z,65.90
2019-03-31T04:16:10.419Z,61.20
2019-03-31T04:17:10.460Z,61.70
2019-03-31T04:18:10.355Z,62.00
2019-03-31T04:19:10.335Z,58.60
2019-03-31T04:20:10.295Z,61.20
2019-03-31T04:21:10.290Z,61.70
2019-03-31T04:22:10.250Z,55.90
2019-03-31T04:23:10.233Z,56.10
2019-03-31T04:24:10.211Z,59.40
2019-03-31T04:25:10.185Z,56.90
2019-03-31T04:26:10.240Z,62.00
2019-03-31T04:27:10.110Z,57.50
2019-03-31T04:28:10.101Z,61.10
2019-03-31T04:29:10.067Z,59.80
2019-03-31T04:30:10.020Z,63.70
2019-03-31T04:31:10.043Z,62.10
2019-03-31T04:32:10.002Z,63.00
2019-03-31T04:33:09.978Z,60.10
2019-03-31T04:34:09.926Z,55.40
2019-03-31T04:35:09.966Z,59.60
2019-03-31T04:36:09.869Z,61.90
2019-03-31T04:37:09.862Z,59.20
2019-03-31T04:38:09.910Z,60.00
2019-03-31T04:39:09.809Z,61.10
2019-03-31T04:40:09.806Z,53.70
2019-03-31T04:41:09.742Z,64.70
2019-03-31T04:42:09.725Z,62.30
2019-03-31T04:43:09.697Z,56.80
2019-03-31T04:44:09.675Z,59.20
2019-03-31T04:45:09.619Z,57.10
2019-03-31T04:46:09.610Z,56.90
2019-03-31T04:47:09.666Z,63.60
2019-03-31T04:48:09.568Z,60.60
2019-03-31T04:49:09.565Z,65.00
2019-03-31T04:50:09.481Z,62.40
2019-03-31T04:51:09.466Z,56.20
2019-03-31T04:52:09.455Z,60.10
2019-03-31T04:53:09.533Z,58.90
2019-03-31T04:54:09.378Z,64.20
2019-03-31T04:55:09.369Z,57.60
2019-03-31T04:56:09.339Z,60.60
2019-03-31T04:57:09.295Z,62.30
2019-03-31T04:58:09.283Z,59.30
2019-03-31T04:59:09.243Z,57.90
2019-03-31T05:00:09.217Z,60.50
2019-03-31T05:01:09.225Z,55.00
2019-03-31T05:02:09.167Z,61.30
2019-03-31T05:03:09.146Z,55.30
2019-03-31T05:04:09.105Z,54.50
2019-03-31T05:05:09.108Z,61.90
2019-03-31T05:06:09.046Z,56.20
2019-03-31T05:07:09.035Z,59.10
2019-03-31T05:08:09.013Z,54.30
2019-03-31T05:09:08.994Z,56.50
2019-03-31T05:10:08.952Z,59.50
2019-03-31T05:11:08.944Z,56.70
2019-03-31T05:12:08.942Z,52.80
2019-03-31T05:13:08.876Z,58.10
2019-03-31T05:14:08.845Z,59.80
2019-03-31T05:15:08.824Z,56.10
2019-03-31T05:16:08.803Z,53.60
2019-03-31T05:17:08.849Z,56.70
2019-03-31T05:18:08.737Z,54.60
2019-03-31T05:19:08.706Z,54.60
2019-03-31T05:20:08.825Z,52.60
2019-03-31T05:21:08.647Z,58.80
2019-03-31T05:22:08.687Z,55.30
2019-03-31T05:23:08.601Z,51.00
2019-03-31T05:24:08.713Z,54.10
2019-03-31T05:25:08.559Z,58.20
2019-03-31T05:26:08.526Z,59.40
2019-03-31T05:27:08.494Z,55.00
2019-03-31T05:28:08.459Z,57.40
2019-03-31T05:29:08.445Z,58.80
2019-03-31T05:30:08.526Z,54.20
2019-03-31T05:31:08.399Z,50.60
2019-03-31T05:32:08.439Z,53.70
2019-03-31T05:33:08.325Z,53.00
2019-03-31T05:34:19.050Z,50.80
2019-03-31T05:35:08.278Z,51.90
2019-03-31T05:36:08.307Z,57.30
2019-03-31T05:37:08.244Z,53.40
2019-03-31T05:38:08.196Z,55.40
2019-03-31T05:39:08.216Z,55.40
2019-03-31T05:40:08.135Z,59.00
2019-03-31T05:41:08.124Z,54.00
2019-03-31T05:42:08.083Z,54.00
2019-03-31T05:43:08.053Z,54.00
2019-03-31T05:44:08.043Z,53.60
2019-03-31T05:45:08.039Z,57.90
2019-03-31T05:46:08.054Z,59.60
2019-03-31T05:47:07.939Z,56.00
2019-03-31T05:48:07.962Z,63.20
2019-03-31T05:49:07.954Z,59.90
2019-03-31T05:50:07.871Z,60.20
2019-03-31T05:51:07.838Z,61.80
2019-03-31T05:52:07.812Z,62.00
2019-03-31T05:53:07.799Z,60.90
2019-03-31T05:54:07.758Z,62.10
2019-03-31T05:55:07.820Z,58.20
2019-03-31T05:56:07.739Z,61.00
2019-03-31T05:57:07.688Z,60.30
2019-03-31T05:58:07.668Z,65.40
2019-03-31T05:59:07.609Z,68.50
2019-03-31T06:00:07.604Z,64.00
2019-03-31T06:01:07.591Z,59.60
2019-03-31T06:02:07.538Z,56.50
2019-03-31T06:03:07.549Z,64.60
2019-03-31T06:04:07.572Z,60.20
2019-03-31T06:05:07.459Z,60.40
2019-03-31T06:06:07.481Z,62.80
2019-03-31T06:07:07.421Z,60.80
2019-03-31T06:08:07.396Z,53.40
2019-03-31T06:09:07.356Z,50.90
2019-03-31T06:10:07.404Z,48.00
2019-03-31T06:11:07.300Z,49.50
2019-03-31T06:12:07.287Z,45.20
2019-03-31T06:13:07.274Z,44.60
2019-03-31T06:14:07.220Z,46.40
2019-03-31T06:15:07.205Z,51.70
2019-03-31T06:16:07.257Z,38.70
2019-03-31T06:17:07.153Z,41.00
2019-03-31T06:18:07.153Z,44.60
2019-03-31T06:19:07.074Z,45.70
2019-03-31T06:20:07.071Z,45.20
2019-03-31T06:21:07.040Z,42.70
2019-03-31T06:22:07.078Z,42.20
2019-03-31T06:23:07.001Z,41.50
2019-03-31T06:24:06.986Z,39.20
2019-03-31T06:25:06.935Z,45.50
2019-03-31T06:26:07.003Z,42.70
2019-03-31T06:27:06.858Z,45.60
2019-03-31T06:28:06.855Z,42.20
2019-03-31T06:29:06.812Z,43.40
2019-03-31T06:30:06.828Z,42.70
2019-03-31T06:31:06.761Z,41.40
2019-03-31T06:32:06.729Z,43.10
2019-03-31T06:33:06.698Z,41.20
2019-03-31T06:34:06.684Z,48.50
2019-03-31T06:35:06.640Z,46.40
2019-03-31T06:36:06.621Z,41.90
2019-03-31T06:37:06.674Z,39.60
2019-03-31T06:38:06.584Z,39.60
2019-03-31T06:39:07.632Z,41.40
2019-03-31T06:40:06.510Z,41.70
2019-03-31T06:41:06.610Z,41.40
2019-03-31T06:42:06.455Z,44.00
2019-03-31T06:43:06.423Z,41.30
2019-03-31T06:44:06.398Z,41.90
2019-03-31T06:45:06.374Z,42.40
2019-03-31T06:46:06.354Z,38.80
2019-03-31T06:47:06.314Z,42.20
2019-03-31T06:48:06.293Z,40.20
2019-03-31T06:49:06.299Z,39.60
2019-03-31T06:50:06.264Z,41.20
2019-03-31T06:51:06.220Z,38.60
2019-03-31T06:52:06.169Z,41.90
2019-03-31T06:53:06.159Z,40.10
2019-03-31T06:54:06.115Z,36.90
2019-03-31T06:55:06.180Z,41.30
2019-03-31T06:56:06.061Z,41.10
2019-03-31T06:57:06.048Z,40.00
2019-03-31T06:58:06.044Z,40.90
2019-03-31T06:59:05.995Z,36.30
2019-03-31T07:00:06.042Z,36.90
2019-03-31T07:01:05.932Z,32.50
2019-03-31T07:02:05.940Z,33.60
2019-03-31T07:03:05.903Z,36.80
2019-03-31T07:04:05.959Z,35.30
2019-03-31T07:05:05.818Z,36.10
2019-03-31T07:06:05.858Z,34.70
2019-03-31T07:07:05.768Z,36.60
2019-03-31T07:08:05.737Z,30.40
2019-03-31T07:09:05.717Z,39.50
2019-03-31T07:10:05.789Z,35.60
2019-03-31T07:11:05.656Z,34.30
2019-03-31T07:12:05.653Z,36.00
2019-03-31T07:13:05.712Z,33.40
2019-03-31T07:14:05.648Z,31.70
2019-03-31T07:15:05.638Z,35.40
2019-03-31T07:16:05.553Z,35.10
2019-03-31T07:17:05.580Z,34.40
2019-03-31T07:18:05.573Z,33.50
2019-03-31T07:19:05.528Z,32.80
2019-03-31T07:20:05.411Z,30.50
2019-03-31T07:21:05.463Z,30.90
2019-03-31T07:22:05.364Z,29.70
2019-03-31T07:23:05.557Z,28.60
2019-03-31T07:24:05.378Z,27.90
2019-03-31T07:25:05.379Z,27.70
2019-03-31T07:26:05.254Z,29.30
2019-03-31T07:27:05.285Z,25.70
2019-03-31T07:28:05.210Z,28.30
2019-03-31T07:29:05.170Z,26.20
2019-03-31T07:30:07.171Z,24.20
2019-03-31T07:31:05.212Z,28.90
2019-03-31T07:32:05.093Z,26.90
2019-03-31T07:33:05.059Z,26.70
2019-03-31T07:34:05.048Z,27.20
2019-03-31T07:35:17.820Z,27.20
2019-03-31T07:36:04.981Z,26.80
2019-03-31T07:37:04.962Z,24.70
2019-03-31T07:38:04.934Z,26.80
2019-03-31T07:39:06.003Z,25.80
2019-03-31T07:40:05.083Z,25.80
2019-03-31T07:41:12.608Z,26.60
2019-03-31T07:42:05.014Z,22.80
2019-03-31T07:43:04.891Z,22.00
2019-03-31T07:44:04.844Z,21.80
2019-03-31T07:45:04.818Z,21.10
2019-03-31T07:46:04.706Z,21.40
2019-03-31T07:47:04.795Z,21.90
2019-03-31T07:48:07.951Z,22.80
2019-03-31T07:49:04.711Z,20.80
2019-03-31T07:50:04.599Z,21.90
2019-03-31T07:51:04.567Z,23.80
2019-03-31T07:52:04.544Z,18.80
2019-03-31T07:53:04.627Z,19.40
2019-03-31T07:54:04.495Z,25.00
2019-03-31T07:55:04.552Z,22.60
2019-03-31T07:56:04.449Z,21.20
2019-03-31T07:57:06.958Z,27.20
2019-03-31T07:58:04.404Z,20.10
2019-03-31T07:59:04.522Z,22.40
2019-03-31T08:00:04.325Z,22.50
2019-03-31T08:01:04.319Z,20.00
2019-03-31T08:02:04.386Z,21.70
2019-03-31T08:03:04.245Z,21.40
2019-03-31T08:04:04.230Z,20.90
2019-03-31T08:05:04.191Z,22.10
2019-03-31T08:06:04.165Z,22.10
2019-03-31T08:07:04.213Z,24.10
2019-03-31T08:08:04.109Z,20.30
2019-03-31T08:09:04.078Z,25.90
2019-03-31T08:10:04.146Z,21.10
2019-03-31T08:11:04.029Z,22.40
2019-03-31T08:12:03.991Z,20.60
2019-03-31T08:13:03.977Z,20.10
2019-03-31T08:14:03.948Z,18.90
2019-03-31T08:15:03.961Z,18.90
2019-03-31T08:16:03.890Z,20.30
2019-03-31T08:17:03.974Z,22.70
2019-03-31T08:18:03.833Z,20.70
2019-03-31T08:19:03.896Z,18.30
2019-03-31T08:20:03.783Z,20.00
2019-03-31T08:21:03.798Z,16.70
2019-03-31T08:22:03.727Z,20.40
2019-03-31T08:23:03.828Z,18.70
2019-03-31T08:24:06.540Z,18.50
2019-03-31T08:25:03.651Z,18.70
2019-03-31T08:26:03.612Z,18.20
2019-03-31T08:27:05.601Z,18.20
2019-03-31T08:28:03.569Z,16.80
2019-03-31T08:29:03.538Z,15.10
2019-03-31T08:30:03.510Z,15.00
2019-03-31T08:31:03.491Z,17.10
2019-03-31T08:32:03.455Z,18.40
2019-03-31T08:33:03.440Z,17.10
2019-03-31T08:34:03.406Z,20.20
2019-03-31T08:35:03.436Z,19.20
2019-03-31T08:36:03.343Z,16.80
2019-03-31T08:37:03.347Z,18.40
2019-03-31T08:38:03.294Z,17.20
2019-03-31T08:39:03.362Z,16.50
2019-03-31T08:40:03.249Z,19.00
2019-03-31T08:41:03.214Z,15.90
2019-03-31T08:42:03.181Z,17.80
2019-03-31T08:43:03.191Z,14.30
2019-03-31T08:44:03.246Z,15.10
2019-03-31T08:45:03.109Z,15.70
2019-03-31T08:46:03.087Z,16.20
2019-03-31T08:47:03.105Z,15.60
2019-03-31T08:48:03.023Z,14.60
2019-03-31T08:49:02.996Z,15.50
2019-03-31T08:50:02.972Z,18.10
2019-03-31T08:51:02.939Z,14.80
2019-03-31T08:52:02.915Z,17.60
2019-03-31T08:53:02.891Z,16.10
2019-03-31T08:54:02.856Z,15.10
2019-03-31T08:55:02.858Z,15.40
2019-03-31T08:56:02.840Z,15.50
2019-03-31T08:57:02.801Z,16.30
2019-03-31T08:58:02.754Z,15.60
2019-03-31T08:59:02.778Z,14.50
2019-03-31T09:00:02.693Z,15.70
2019-03-31T09:01:02.703Z,18.30
2019-03-31T09:02:03.463Z,15.90
2019-03-31T09:03:02.716Z,19.20
2019-03-31T09:04:02.608Z,17.50
2019-03-31T09:05:02.637Z,16.30
2019-03-31T09:06:02.792Z,19.90
2019-03-31T09:07:02.534Z,16.70
2019-03-31T09:08:02.479Z,15.70
2019-03-31T09:09:02.549Z,16.10
2019-03-31T09:10:02.422Z,16.60
2019-03-31T09:11:02.532Z,15.50
2019-03-31T09:12:02.369Z,14.80
2019-03-31T09:13:02.343Z,16.10
2019-03-31T09:14:02.339Z,14.00
2019-03-31T09:15:02.291Z,15.70
2019-03-31T09:16:02.463Z,14.10
2019-03-31T09:17:02.232Z,17.10
2019-03-31T09:18:02.374Z,16.80
2019-03-31T09:19:02.179Z,16.10
2019-03-31T09:20:02.281Z,15.70
2019-03-31T09:21:02.122Z,17.60
2019-03-31T09:22:02.199Z,16.10
2019-03-31T09:23:02.065Z,14.90
2019-03-31T09:24:02.209Z,18.70
2019-03-31T09:25:02.015Z,18.40
2019-03-31T09:26:02.130Z,15.20
2019-03-31T09:27:01.964Z,16.20
2019-03-31T09:28:02.134Z,14.60
2019-03-31T09:29:01.923Z,12.70
2019-03-31T09:30:01.954Z,12.30
2019-03-31T09:31:01.847Z,18.00
2019-03-31T09:32:01.847Z,15.60
2019-03-31T09:33:01.817Z,14.60
2019-03-31T09:34:01.869Z,11.50
2019-03-31T09:35:01.740Z,15.50
2019-03-31T09:36:15.077Z,13.30
2019-03-31T09:37:01.685Z,17.60
2019-03-31T09:38:01.696Z,12.90
2019-03-31T09:39:01.652Z,12.80
2019-03-31T09:40:01.701Z,11.40
2019-03-31T09:41:01.570Z,11.80
2019-03-31T09:42:01.667Z,12.00
2019-03-31T09:43:01.522Z,15.20
2019-03-31T09:44:01.646Z,11.80
2019-03-31T09:45:01.480Z,13.90
2019-03-31T09:46:01.545Z,10.00
2019-03-31T09:47:01.414Z,9.40
2019-03-31T09:48:01.481Z,10.20
2019-03-31T09:49:01.363Z,12.20
2019-03-31T09:50:01.363Z,14.00
2019-03-31T09:51:01.313Z,10.40
2019-03-31T09:52:01.291Z,10.70
2019-03-31T09:53:01.252Z,9.50
2019-03-31T09:54:01.232Z,11.70
2019-03-31T09:55:01.299Z,9.70
2019-03-31T09:56:01.169Z,10.30
2019-03-31T09:57:01.175Z,8.30
2019-03-31T09:58:01.213Z,10.20
2019-03-31T09:59:01.086Z,10.20
2019-03-31T10:00:01.066Z,12.50
2019-03-31T10:01:01.038Z,12.40
2019-03-31T10:02:01.129Z,13.30
2019-03-31T10:03:01.292Z,11.00
2019-03-31T10:04:00.951Z,8.50
2019-03-31T10:05:00.926Z,10.30
2019-03-31T10:06:10.748Z,10.10
2019-03-31T10:07:00.875Z,11.30
2019-03-31T10:08:00.963Z,9.50
2019-03-31T10:09:00.815Z,8.20
2019-03-31T10:10:00.898Z,8.20
2019-03-31T10:11:02.831Z,12.60
2019-03-31T10:12:00.817Z,9.00
2019-03-31T10:13:00.710Z,9.80
2019-03-31T10:14:00.717Z,9.60
2019-03-31T10:15:00.667Z,9.60
2019-03-31T10:16:00.710Z,10.40
2019-03-31T10:17:00.650Z,8.80
2019-03-31T10:18:00.570Z,11.70
2019-03-31T10:19:00.625Z,10.20
2019-03-31T10:20:00.513Z,11.80
2019-03-31T10:21:00.541Z,9.10
2019-03-31T10:22:00.453Z,10.20
2019-03-31T10:23:00.455Z,8.10
2019-03-31T10:24:00.466Z,11.00
2019-03-31T10:25:00.428Z,8.70
2019-03-31T10:26:00.359Z,9.60
2019-03-31T10:27:00.403Z,8.70
2019-03-31T10:28:00.302Z,8.80
2019-03-31T10:29:00.388Z,8.00
2019-03-31T10:30:00.453Z,7.60
2019-03-31T10:31:00.306Z,8.10
2019-03-31T10:32:00.191Z,8.70
2019-03-31T10:33:00.181Z,8.80
2019-03-31T10:34:00.259Z,7.60
2019-03-31T10:35:00.362Z,8.00
2019-03-31T10:36:00.077Z,9.00
2019-03-31T10:37:00.125Z,8.20
2019-03-31T10:38:00.031Z,10.90
2019-03-31T10:38:59.990Z,8.40
2019-03-31T10:39:59.975Z,9.30
2019-03-31T10:41:00.056Z,9.60
2019-03-31T10:41:59.915Z,7.90
2019-03-31T10:42:59.993Z,9.30
2019-03-31T10:43:59.862Z,9.50
2019-03-31T10:44:59.881Z,8.00
2019-03-31T10:45:59.803Z,8.10
2019-03-31T10:46:59.885Z,9.20
2019-03-31T10:47:59.747Z,7.40
2019-03-31T10:48:59.797Z,7.40
2019-03-31T10:49:59.698Z,7.50
2019-03-31T10:50:59.767Z,7.70
2019-03-31T10:51:59.641Z,7.40
2019-03-31T10:53:59.785Z,7.30
2019-03-31T10:55:01.176Z,7.70
2019-03-31T10:56:00.259Z,8.60
2019-03-31T10:56:59.606Z,6.80
2019-03-31T10:57:59.479Z,9.40
2019-03-31T10:59:20.745Z,8.70
2019-03-31T10:59:59.422Z,7.90
2019-03-31T11:00:59.397Z,8.50
2019-03-31T11:01:59.470Z,7.90
2019-03-31T11:02:59.338Z,9.80
2019-03-31T11:03:59.322Z,7.60
2019-03-31T11:05:59.266Z,7.60
2019-03-31T11:07:03.549Z,7.50
2019-03-31T11:07:59.221Z,8.30
2019-03-31T11:08:59.198Z,8.60
2019-03-31T11:09:59.173Z,7.50
2019-03-31T11:10:59.219Z,6.40
2019-03-31T11:11:59.095Z,9.30
2019-03-31T11:13:00.137Z,6.80
2019-03-31T11:13:59.063Z,11.20
2019-03-31T11:14:59.011Z,9.20
2019-03-31T11:15:58.989Z,9.50
2019-03-31T11:16:59.051Z,9.70
2019-03-31T11:17:58.928Z,8.80
2019-03-31T11:18:59.989Z,9.70
2019-03-31T11:20:00.715Z,8.70
2019-03-31T11:21:06.761Z,8.50
2019-03-31T11:21:58.830Z,10.30
2019-03-31T11:23:05.767Z,9.70
2019-03-31T11:23:58.767Z,10.30
2019-03-31T11:24:59.822Z,10.40
2019-03-31T11:25:58.720Z,8.80
2019-03-31T11:27:15.281Z,10.20
2019-03-31T11:27:58.666Z,10.70
2019-03-31T11:28:58.705Z,11.80
2019-03-31T11:29:58.597Z,12.20
2019-03-31T11:30:58.613Z,12.80
2019-03-31T11:31:58.557Z,12.00
2019-03-31T11:32:59.551Z,12.80
2019-03-31T11:33:58.503Z,11.00
2019-03-31T11:34:58.538Z,11.20
2019-03-31T11:35:58.443Z,10.70
2019-03-31T11:37:12.475Z,9.90
2019-03-31T11:37:58.388Z,13.30
2019-03-31T11:38:58.480Z,13.10
2019-03-31T11:39:58.356Z,13.00
2019-03-31T11:40:58.418Z,11.40
2019-03-31T11:41:58.277Z,9.50
2019-03-31T11:42:58.371Z,13.10
2019-03-31T11:43:58.229Z,9.30
2019-03-31T11:44:59.223Z,10.50
2019-03-31T11:45:58.169Z,11.00
2019-03-31T11:46:58.317Z,9.50
2019-03-31T11:47:58.115Z,9.30
2019-03-31T11:49:34.776Z,9.60
2019-03-31T11:49:58.053Z,9.00
2019-03-31T11:51:04.877Z,9.50
2019-03-31T11:51:58.007Z,8.80
2019-03-31T11:52:58.133Z,9.80
2019-03-31T11:53:57.948Z,8.80
2019-03-31T11:55:04.803Z,9.60
2019-03-31T11:55:57.909Z,8.60
2019-03-31T11:56:58.986Z,8.20
2019-03-31T11:57:57.840Z,9.60
2019-03-31T11:58:57.834Z,9.00
2019-03-31T11:59:58.800Z,9.90
2019-03-31T12:00:57.760Z,9.90
2019-03-31T12:01:57.793Z,11.50
2019-03-31T12:02:57.704Z,13.70
2019-03-31T12:03:57.726Z,9.80
2019-03-31T12:04:57.681Z,10.90
2019-03-31T12:05:57.723Z,8.80
2019-03-31T12:06:57.589Z,8.70
2019-03-31T12:08:57.568Z,12.30
2019-03-31T12:09:57.540Z,10.30
2019-03-31T12:10:57.490Z,11.70
2019-03-31T12:11:59.499Z,13.40
2019-03-31T12:12:57.439Z,10.70
2019-03-31T12:13:57.412Z,11.30
2019-03-31T12:15:00.609Z,10.50
2019-03-31T12:15:57.368Z,9.70
2019-03-31T12:16:57.378Z,11.90
2019-03-31T12:17:57.310Z,14.60
2019-03-31T12:18:57.383Z,13.20
2019-03-31T12:19:57.261Z,11.90
2019-03-31T12:21:04.358Z,10.20
2019-03-31T12:21:57.197Z,11.80
2019-03-31T12:22:57.170Z,10.20
2019-03-31T12:23:57.310Z,10.30
2019-03-31T12:24:57.111Z,10.30
2019-03-31T12:26:19.284Z,10.30
2019-03-31T12:26:57.060Z,11.20
2019-03-31T12:27:59.192Z,8.90
2019-03-31T12:28:57.024Z,9.40
2019-03-31T12:29:57.150Z,8.40
2019-03-31T12:30:56.997Z,8.60
2019-03-31T12:32:03.735Z,9.00
2019-03-31T12:32:56.894Z,8.40
2019-03-31T12:33:56.892Z,9.30
2019-03-31T12:34:56.834Z,8.00
2019-03-31T12:35:58.011Z,7.90
2019-03-31T12:36:56.792Z,6.70
2019-03-31T12:38:03.774Z,8.30
2019-03-31T12:38:56.728Z,7.00
2019-03-31T12:40:03.366Z,8.50
2019-03-31T12:40:56.680Z,10.90
2019-03-31T12:41:56.895Z,7.50
2019-03-31T12:42:56.614Z,8.50
2019-03-31T12:43:56.700Z,9.80
2019-03-31T12:44:56.566Z,9.50
2019-03-31T12:45:57.634Z,8.90
2019-03-31T12:46:56.660Z,8.00
2019-03-31T12:47:56.665Z,7.20
2019-03-31T12:48:56.450Z,8.30
2019-03-31T12:49:56.436Z,5.90
2019-03-31T12:50:56.405Z,9.20
2019-03-31T12:51:56.447Z,7.30
2019-03-31T12:52:56.360Z,8.00
2019-03-31T12:53:56.323Z,7.00
2019-03-31T12:54:56.411Z,7.50
2019-03-31T12:56:00.434Z,8.80
2019-03-31T12:56:56.233Z,7.20
2019-03-31T12:57:57.175Z,7.20
2019-03-31T12:58:56.184Z,7.70
2019-03-31T12:59:56.153Z,9.90
2019-03-31T13:00:56.135Z,9.10
2019-03-31T13:01:56.131Z,6.70
2019-03-31T13:02:56.128Z,6.80
2019-03-31T13:03:56.046Z,8.80
2019-03-31T13:04:56.016Z,8.30
2019-03-31T13:05:56.133Z,8.90
2019-03-31T13:06:55.981Z,12.00
2019-03-31T13:07:56.949Z,8.70
2019-03-31T13:08:55.908Z,9.50
2019-03-31T13:09:56.056Z,10.30
2019-03-31T13:10:55.856Z,6.20
2019-03-31T13:11:55.967Z,8.50
2019-03-31T13:12:55.807Z,6.50
2019-03-31T13:13:55.884Z,8.30
2019-03-31T13:14:55.824Z,7.80
2019-03-31T13:15:55.902Z,6.60
2019-03-31T13:16:55.763Z,6.50
2019-03-31T13:17:55.815Z,5.60
2019-03-31T13:18:55.718Z,6.90
2019-03-31T13:19:55.930Z,8.90
2019-03-31T13:20:55.656Z,6.60
2019-03-31T13:21:55.744Z,5.30
2019-03-31T13:22:55.609Z,5.40
2019-03-31T13:23:56.672Z,7.10
2019-03-31T13:24:55.485Z,6.20
2019-03-31T13:25:55.686Z,5.80
2019-03-31T13:26:55.422Z,6.60
2019-03-31T13:27:55.745Z,8.30
2019-03-31T13:28:55.375Z,6.80
2019-03-31T13:29:55.481Z,6.50
2019-03-31T13:30:55.307Z,5.50
2019-03-31T13:31:55.402Z,7.60
2019-03-31T13:32:55.256Z,5.90
2019-03-31T13:33:55.418Z,8.00
2019-03-31T13:34:55.205Z,6.50
2019-03-31T13:35:55.318Z,7.40